Terminal Aerodrome Forecast
Issued by NWS Charleston, WV

Current Version | Previous Version | Graphics & Text | Print | Product List | Glossary On
Versions: 1 2 3 4 5 6 7 8 9 10 11 12 13 14 15 16 17
000
FTUS41 KRLX 211100
TAFHTS
TAF
KHTS 211136Z 2112/2212 00000KT P6SM BKN020
     FM211800 VRB03KT P6SM BKN030
     FM212100 VRB03KT P6SM SCT030
     FM212200 VRB03KT P6SM SCT250
     FM221000 13003KT P6SM BKN050=

USA.gov is the U.S. government's official web portal to all federal, state and local government web resources and services.